Kt Albatross — HPDH — position and weather

sailwx.info

Track history (hours):
 
Tides and Currents Weather Stations Pressure Air Temp Water Temp Dewpoint Dewpoint Depression Visibility Wind Speed Wind Dir Waves Ship Positions

Kt Albatross

Last reported at 2014-Oct-25 04:33 UTC. Time now 2014-Oct-25 05:43 UTC.
Position N 51°53' E 004°27'.

Length 197 m; draft 6.9 m.

Type: Cargo ship. MMSI: 354794000.

Date/timePositionNaut miles runAvg speedWind from/ knotsBaromVisibWave heightAir tempDewpointWater temp
2014-Oct-25 04:33N 51°53' E 004°27'0 0.0
2014-Oct-25 03:33N 51°53' E 004°27'0 0.0
2014-Oct-25 02:33N 51°53' E 004°27'0 0.1
2014-Oct-25 01:33N 51°53' E 004°27'5 5.3
2014-Oct-25 00:34N 51°54' E 004°18'1010.4
2014-Oct-24 23:33N 51°59' E 004°04'1010.0
2014-Oct-24 22:33N 51°60' E 003°48'1511.9
2014-Oct-24 21:15N 51°55' E 003°24'16 9.4
2014-Oct-24 19:33N 51°39' E 003°20'1211.5
2014-Oct-24 18:33N 51°29' E 003°30'10 9.6
2014-Oct-24 17:34N 51°24' E 003°43'6 5.8
2014-Oct-24 16:34N 51°20' E 003°49'5 5.3
2014-Oct-24 15:34N 51°14' E 003°49'7 7.0
2014-Oct-24 14:33N 51°08' E 003°46'2 2.1
2014-Oct-24 13:31N 51°05' E 003°45'0 0.0
2014-Oct-24 12:25N 51°05' E 003°45'0 0.0
2014-Oct-24 11:31N 51°05' E 003°45'0 0.0
2014-Oct-24 10:28N 51°05' E 003°45'0 0.0
2014-Oct-24 09:31N 51°05' E 003°45'0 0.0
2014-Oct-24 08:31N 51°05' E 003°45'0 0.0
2014-Oct-24 07:28N 51°05' E 003°45'0 0.0
2014-Oct-24 06:31N 51°05' E 003°45'0 0.0
2014-Oct-24 05:28N 51°05' E 003°45'0 0.0
2014-Oct-24 04:31N 51°05' E 003°45'0 0.0
2014-Oct-24 03:31N 51°05' E 003°45'0 0.0
2014-Oct-24 02:31N 51°05' E 003°45'0 0.0
2014-Oct-24 01:31N 51°05' E 003°45'0 0.0
2014-Oct-24 00:28N 51°05' E 003°45'0 0.0
2014-Oct-23 23:28N 51°05' E 003°45'0 0.0
2014-Oct-23 22:32N 51°05' E 003°45'0 0.0
2014-Oct-23 21:16N 51°05' E 003°45'0 0.0
2014-Oct-23 20:22N 51°05' E 003°45'0 0.0
2014-Oct-23 19:31N 51°05' E 003°45'0 0.0
2014-Oct-23 18:31N 51°05' E 003°45'0 0.0
2014-Oct-23 17:31N 51°05' E 003°45'0 0.0
2014-Oct-23 16:28N 51°05' E 003°45'0 0.0
2014-Oct-23 15:28N 51°05' E 003°45'0 0.0
2014-Oct-23 14:31N 51°05' E 003°45'0 0.0
2014-Oct-23 13:28N 51°05' E 003°45'0 0.0
2014-Oct-23 12:28N 51°05' E 003°45'0 0.0
2014-Oct-23 11:31N 51°05' E 003°45'0 0.0
2014-Oct-23 10:31N 51°05' E 003°45'0 0.0
2014-Oct-23 09:28N 51°05' E 003°45'0 0.0
2014-Oct-23 08:31N 51°05' E 003°45'0 0.0
2014-Oct-23 07:28N 51°05' E 003°45'0 0.0
2014-Oct-23 06:28N 51°05' E 003°45'0 0.0
2014-Oct-23 05:31N 51°05' E 003°45'0 0.0
2014-Oct-23 04:31N 51°05' E 003°45'0 0.0
2014-Oct-23 03:28N 51°05' E 003°45'0 0.0
2014-Oct-23 02:28N 51°05' E 003°45'0 0.0
2014-Oct-23 01:31N 51°05' E 003°45'0 0.0
2014-Oct-23 00:28N 51°05' E 003°45'0 0.0
2014-Oct-22 23:29N 51°05' E 003°45'0 0.0
2014-Oct-22 22:28N 51°05' E 003°45'0 0.0
2014-Oct-22 21:31N 51°05' E 003°45'0 0.0
2014-Oct-22 20:31N 51°05' E 003°45'0 0.0
2014-Oct-22 19:32N 51°05' E 003°45'0 0.0
2014-Oct-22 18:31N 51°05' E 003°45'0 0.0
2014-Oct-22 17:31N 51°05' E 003°45'0 0.0
2014-Oct-22 16:31N 51°05' E 003°45'0 0.0
2014-Oct-22 15:31N 51°05' E 003°45'0 0.0
2014-Oct-22 14:31N 51°05' E 003°45'0 0.0
2014-Oct-22 13:28N 51°05' E 003°45'0 0.0
2014-Oct-22 12:31N 51°05' E 003°45'0 0.0
2014-Oct-22 11:31N 51°05' E 003°45'0 0.0
2014-Oct-22 10:28N 51°05' E 003°45'0 0.0
2014-Oct-22 09:28N 51°05' E 003°45'0 0.0
2014-Oct-22 08:31N 51°05' E 003°45'0 0.0
2014-Oct-22 07:31N 51°05' E 003°45'0 0.0
2014-Oct-22 06:31N 51°05' E 003°45'0 0.0
2014-Oct-22 05:31N 51°05' E 003°45'0 0.0
2014-Oct-22 04:31N 51°05' E 003°45'0 0.0
2014-Oct-22 03:32N 51°05' E 003°45'0 0.0
2014-Oct-22 02:31N 51°05' E 003°45'0 0.0
2014-Oct-22 01:31N 51°05' E 003°45'0 0.0
2014-Oct-22 00:28N 51°05' E 003°45'0 0.0
2014-Oct-21 23:28N 51°05' E 003°45'1 1.1
2014-Oct-21 22:33N 51°06' E 003°44'5 4.6
2014-Oct-21 21:33N 51°10' E 003°48'5 5.1
2014-Oct-21 20:34N 51°15' E 003°50'4 4.3
2014-Oct-21 19:34N 51°20' E 003°49'1 1.5
2014-Oct-21 18:33N 51°21' E 003°48'8 8.2
2014-Oct-21 17:33N 51°26' E 003°38'6 6.3
2014-Oct-21 16:33N 51°25' E 003°28'9 8.5
2014-Oct-21 15:33N 51°25' E 003°14'1110.5
2014-Oct-21 14:32N 51°25' E 002°57'1010.2
2014-Oct-21 13:33N 51°23' E 002°41'4 4.4
2014-Oct-21 12:33N 51°28' E 002°40'5 4.8
2014-Oct-21 11:33N 51°24' E 002°36'1211.7
2014-Oct-21 10:33N 51°19' E 002°19'1515.1
2014-Oct-21 09:33N 51°12' E 001°58'1515.2
2014-Oct-21 08:33N 51°02' E 001°39'1413.9
2014-Oct-21 07:31N 50°50' E 001°26'  
2014-Oct-16 16:04N 32°49' W 017°30'612.6
2014-Oct-16 15:34N 32°43' W 017°34'1312.8
2014-Oct-16 14:33N 32°31' W 017°41'1312.9
2014-Oct-16 13:31N 32°19' W 017°48'1212.6
2014-Oct-16 12:34N 32°08' W 017°54'1612.6
2014-Oct-16 11:18N 31°54' W 018°02'1112.8
2014-Oct-16 10:25N 31°44' W 018°08'1312.7
2014-Oct-16 09:22N 31°32' W 018°15'  
Track history (hours):
 
Tides and Currents Weather Stations Pressure Air Temp Water Temp Dewpoint Dewpoint Depression Visibility Wind Speed Wind Dir Waves Ship Positions

Kt Albatross

Last reported at 2014-Oct-25 04:33 UTC. Time now 2014-Oct-25 05:43 UTC.
Position N 51°53' E 004°27'.

Length 197 m; draft 6.9 m.

Type: Cargo ship. MMSI: 354794000.

Date/timePositionNaut miles runAvg speedWind from/ knotsBaromVisibWave heightAir tempDewpointWater temp
2014-Oct-25 04:33N 51°53' E 004°27'0 0.0
2014-Oct-25 03:33N 51°53' E 004°27'0 0.0
2014-Oct-25 02:33N 51°53' E 004°27'0 0.1
2014-Oct-25 01:33N 51°53' E 004°27'5 5.3
2014-Oct-25 00:34N 51°54' E 004°18'1010.4
2014-Oct-24 23:33N 51°59' E 004°04'1010.0
2014-Oct-24 22:33N 51°60' E 003°48'1511.9
2014-Oct-24 21:15N 51°55' E 003°24'16 9.4
2014-Oct-24 19:33N 51°39' E 003°20'1211.5
2014-Oct-24 18:33N 51°29' E 003°30'10 9.6
2014-Oct-24 17:34N 51°24' E 003°43'6 5.8
2014-Oct-24 16:34N 51°20' E 003°49'5 5.3
2014-Oct-24 15:34N 51°14' E 003°49'7 7.0
2014-Oct-24 14:33N 51°08' E 003°46'2 2.1
2014-Oct-24 13:31N 51°05' E 003°45'0 0.0
2014-Oct-24 12:25N 51°05' E 003°45'0 0.0
2014-Oct-24 11:31N 51°05' E 003°45'0 0.0
2014-Oct-24 10:28N 51°05' E 003°45'0 0.0
2014-Oct-24 09:31N 51°05' E 003°45'0 0.0
2014-Oct-24 08:31N 51°05' E 003°45'0 0.0
2014-Oct-24 07:28N 51°05' E 003°45'0 0.0
2014-Oct-24 06:31N 51°05' E 003°45'0 0.0
2014-Oct-24 05:28N 51°05' E 003°45'0 0.0
2014-Oct-24 04:31N 51°05' E 003°45'0 0.0
2014-Oct-24 03:31N 51°05' E 003°45'0 0.0
2014-Oct-24 02:31N 51°05' E 003°45'0 0.0
2014-Oct-24 01:31N 51°05' E 003°45'0 0.0
2014-Oct-24 00:28N 51°05' E 003°45'0 0.0
2014-Oct-23 23:28N 51°05' E 003°45'0 0.0
2014-Oct-23 22:32N 51°05' E 003°45'0 0.0
2014-Oct-23 21:16N 51°05' E 003°45'0 0.0
2014-Oct-23 20:22N 51°05' E 003°45'0 0.0
2014-Oct-23 19:31N 51°05' E 003°45'0 0.0
2014-Oct-23 18:31N 51°05' E 003°45'0 0.0
2014-Oct-23 17:31N 51°05' E 003°45'0 0.0
2014-Oct-23 16:28N 51°05' E 003°45'0 0.0
2014-Oct-23 15:28N 51°05' E 003°45'0 0.0
2014-Oct-23 14:31N 51°05' E 003°45'0 0.0
2014-Oct-23 13:28N 51°05' E 003°45'0 0.0
2014-Oct-23 12:28N 51°05' E 003°45'0 0.0
2014-Oct-23 11:31N 51°05' E 003°45'0 0.0
2014-Oct-23 10:31N 51°05' E 003°45'0 0.0
2014-Oct-23 09:28N 51°05' E 003°45'0 0.0
2014-Oct-23 08:31N 51°05' E 003°45'0 0.0
2014-Oct-23 07:28N 51°05' E 003°45'0 0.0
2014-Oct-23 06:28N 51°05' E 003°45'0 0.0
2014-Oct-23 05:31N 51°05' E 003°45'0 0.0
2014-Oct-23 04:31N 51°05' E 003°45'0 0.0
2014-Oct-23 03:28N 51°05' E 003°45'0 0.0
2014-Oct-23 02:28N 51°05' E 003°45'0 0.0
2014-Oct-23 01:31N 51°05' E 003°45'0 0.0
2014-Oct-23 00:28N 51°05' E 003°45'0 0.0
2014-Oct-22 23:29N 51°05' E 003°45'0 0.0
2014-Oct-22 22:28N 51°05' E 003°45'0 0.0
2014-Oct-22 21:31N 51°05' E 003°45'0 0.0
2014-Oct-22 20:31N 51°05' E 003°45'0 0.0
2014-Oct-22 19:32N 51°05' E 003°45'0 0.0
2014-Oct-22 18:31N 51°05' E 003°45'0 0.0
2014-Oct-22 17:31N 51°05' E 003°45'0 0.0
2014-Oct-22 16:31N 51°05' E 003°45'0 0.0
2014-Oct-22 15:31N 51°05' E 003°45'0 0.0
2014-Oct-22 14:31N 51°05' E 003°45'0 0.0
2014-Oct-22 13:28N 51°05' E 003°45'0 0.0
2014-Oct-22 12:31N 51°05' E 003°45'0 0.0
2014-Oct-22 11:31N 51°05' E 003°45'0 0.0
2014-Oct-22 10:28N 51°05' E 003°45'0 0.0
2014-Oct-22 09:28N 51°05' E 003°45'0 0.0
2014-Oct-22 08:31N 51°05' E 003°45'0 0.0
2014-Oct-22 07:31N 51°05' E 003°45'0 0.0
2014-Oct-22 06:31N 51°05' E 003°45'0 0.0
2014-Oct-22 05:31N 51°05' E 003°45'0 0.0
2014-Oct-22 04:31N 51°05' E 003°45'0 0.0
2014-Oct-22 03:32N 51°05' E 003°45'0 0.0
2014-Oct-22 02:31N 51°05' E 003°45'0 0.0
2014-Oct-22 01:31N 51°05' E 003°45'0 0.0
2014-Oct-22 00:28N 51°05' E 003°45'0 0.0
2014-Oct-21 23:28N 51°05' E 003°45'1 1.1
2014-Oct-21 22:33N 51°06' E 003°44'5 4.6
2014-Oct-21 21:33N 51°10' E 003°48'5 5.1
2014-Oct-21 20:34N 51°15' E 003°50'4 4.3
2014-Oct-21 19:34N 51°20' E 003°49'1 1.5
2014-Oct-21 18:33N 51°21' E 003°48'8 8.2
2014-Oct-21 17:33N 51°26' E 003°38'6 6.3
2014-Oct-21 16:33N 51°25' E 003°28'9 8.5
2014-Oct-21 15:33N 51°25' E 003°14'1110.5
2014-Oct-21 14:32N 51°25' E 002°57'1010.2
2014-Oct-21 13:33N 51°23' E 002°41'4 4.4
2014-Oct-21 12:33N 51°28' E 002°40'5 4.8
2014-Oct-21 11:33N 51°24' E 002°36'1211.7
2014-Oct-21 10:33N 51°19' E 002°19'1515.1
2014-Oct-21 09:33N 51°12' E 001°58'1515.2
2014-Oct-21 08:33N 51°02' E 001°39'1413.9
2014-Oct-21 07:31N 50°50' E 001°26'  
2014-Oct-16 16:04N 32°49' W 017°30'612.6
2014-Oct-16 15:34N 32°43' W 017°34'1312.8
2014-Oct-16 14:33N 32°31' W 017°41'1312.9
2014-Oct-16 13:31N 32°19' W 017°48'1212.6
2014-Oct-16 12:34N 32°08' W 017°54'1612.6
2014-Oct-16 11:18N 31°54' W 018°02'1112.8
2014-Oct-16 10:25N 31°44' W 018°08'1312.7
2014-Oct-16 09:22N 31°32' W 018°15'  

Dump ship's entire track history